createdAt,value
2022-11-05T00:00:02.465Z,1016.70
2022-11-05T00:10:00.123Z,1017.01
2022-11-05T00:20:02.994Z,1017.12
2022-11-05T00:30:01.014Z,1017.22
2022-11-05T00:50:01.311Z,1017.38
2022-11-05T01:00:01.333Z,1017.56
2022-11-05T01:10:02.736Z,1017.60
2022-11-05T01:20:01.018Z,1017.74
2022-11-05T01:30:01.890Z,1017.66
2022-11-05T01:40:00.152Z,1017.75
2022-11-05T01:50:00.132Z,1017.81
2022-11-05T02:00:01.044Z,1017.81
2022-11-05T02:10:01.095Z,1017.98
2022-11-05T02:20:01.087Z,1017.99
2022-11-05T02:30:00.111Z,1018.15
2022-11-05T02:40:03.033Z,1018.20
2022-11-05T02:50:01.278Z,1018.27
2022-11-05T03:00:01.297Z,1018.36
2022-11-05T03:10:01.292Z,1018.53
2022-11-05T03:20:01.308Z,1018.58
2022-11-05T03:30:00.111Z,1018.66
2022-11-05T03:40:00.156Z,1018.78
2022-11-05T03:50:00.152Z,1018.88
2022-11-05T04:00:00.157Z,1019.02
2022-11-05T04:10:01.026Z,1019.15
2022-11-05T04:20:01.015Z,1019.26
2022-11-05T04:30:01.336Z,1019.38
2022-11-05T04:40:01.027Z,1019.50
2022-11-05T04:50:01.148Z,1019.49
2022-11-05T05:00:01.444Z,1019.59
2022-11-05T05:10:01.223Z,1019.60
2022-11-05T05:20:01.039Z,1019.50
2022-11-05T05:30:00.166Z,1019.63
2022-11-05T05:40:02.204Z,1019.86
2022-11-05T05:50:01.037Z,1020.07
2022-11-05T06:10:00.171Z,1020.33
2022-11-05T06:20:01.078Z,1020.40
2022-11-05T06:30:00.995Z,1020.64
2022-11-05T06:40:00.188Z,1020.87
2022-11-05T06:50:00.986Z,1020.96
2022-11-05T07:00:04.582Z,1021.01
2022-11-05T07:10:01.231Z,1021.15
2022-11-05T07:20:02.731Z,1021.30
2022-11-05T07:30:00.122Z,1021.46
2022-11-05T07:40:01.025Z,1021.57
2022-11-05T07:50:00.189Z,1021.58
2022-11-05T08:00:00.285Z,1021.53
2022-11-05T08:10:01.906Z,1021.66
2022-11-05T08:20:01.264Z,1021.86
2022-11-05T08:30:01.005Z,1021.91
2022-11-05T08:40:00.149Z,1022.05
2022-11-05T08:50:01.590Z,1022.06
2022-11-05T09:00:00.173Z,1022.11
2022-11-05T09:10:01.034Z,1021.99
2022-11-05T09:20:01.060Z,1022.06
2022-11-05T09:30:00.997Z,1022.15
2022-11-05T09:40:01.092Z,1022.21
2022-11-05T09:50:00.150Z,1022.22
2022-11-05T10:00:01.239Z,1022.18
2022-11-05T10:10:00.133Z,1022.01
2022-11-05T10:20:00.980Z,1022.01
2022-11-05T10:30:00.997Z,1022.02
2022-11-05T10:40:01.526Z,1022.14
2022-11-05T10:50:00.939Z,1022.18
2022-11-05T11:00:00.196Z,1022.26
2022-11-05T11:10:01.022Z,1022.23
2022-11-05T11:20:00.163Z,1022.26
2022-11-05T11:30:01.044Z,1022.16
2022-11-05T11:50:00.108Z,1022.30
2022-11-05T12:00:10.177Z,1022.43
2022-11-05T12:10:00.133Z,1022.36
2022-11-05T12:20:00.187Z,1022.30
2022-11-05T12:30:00.973Z,1022.34
2022-11-05T12:40:01.230Z,1022.37
2022-11-05T12:50:01.064Z,1022.33
2022-11-05T13:00:00.150Z,1022.26
2022-11-05T13:10:01.521Z,1022.30
2022-11-05T13:20:01.202Z,1022.37
2022-11-05T13:30:01.061Z,1022.46
2022-11-05T13:40:00.173Z,1022.64
2022-11-05T13:50:01.027Z,1022.74
2022-11-05T14:10:01.018Z,1022.80
2022-11-05T14:20:02.725Z,1022.84
2022-11-05T14:30:00.147Z,1022.85
2022-11-05T14:40:01.999Z,1022.80
2022-11-05T14:50:01.353Z,1022.94
2022-11-05T15:00:01.380Z,1023.14
2022-11-05T15:10:04.389Z,1023.12
2022-11-05T15:20:00.169Z,1023.18
2022-11-05T15:30:00.169Z,1023.22
2022-11-05T15:40:00.179Z,1023.36
2022-11-05T15:50:01.580Z,1023.36
2022-11-05T16:00:01.130Z,1023.39
2022-11-05T16:10:00.137Z,1023.38
2022-11-05T16:20:00.272Z,1023.42
2022-11-05T16:30:01.316Z,1023.50
2022-11-05T16:40:00.379Z,1023.50
2022-11-05T16:50:01.273Z,1023.73
2022-11-05T17:00:03.896Z,1023.87
2022-11-05T17:10:01.310Z,1024.04
2022-11-05T17:20:01.089Z,1024.19
2022-11-05T17:30:01.159Z,1024.31
2022-11-05T17:40:01.018Z,1024.34
2022-11-05T17:50:01.053Z,1024.45
2022-11-05T18:00:00.145Z,1024.54
2022-11-05T18:10:01.253Z,1024.61
2022-11-05T18:20:01.140Z,1024.60
2022-11-05T18:30:01.010Z,1024.59
2022-11-05T18:40:01.428Z,1024.61
2022-11-05T18:50:00.989Z,1024.70
2022-11-05T19:00:01.301Z,1024.82
2022-11-05T19:10:01.275Z,1024.85
2022-11-05T19:20:01.087Z,1024.84
2022-11-05T19:30:02.078Z,1024.90
2022-11-05T19:40:01.501Z,1024.98
2022-11-05T19:50:01.044Z,1025.07
2022-11-05T20:00:01.234Z,1025.01
2022-11-05T20:10:01.163Z,1024.96
2022-11-05T20:20:00.997Z,1025.12
2022-11-05T20:30:00.197Z,1025.16
2022-11-05T20:40:01.622Z,1025.35
2022-11-05T20:50:01.943Z,1025.37
2022-11-05T21:00:01.056Z,1025.30
2022-11-05T21:10:01.030Z,1025.36
2022-11-05T21:20:01.042Z,1025.41
2022-11-05T21:30:01.370Z,1025.54
2022-11-05T21:40:01.317Z,1025.57
2022-11-05T21:50:01.100Z,1025.47
2022-11-05T22:00:01.153Z,1025.35
2022-11-05T22:10:01.664Z,1025.43
2022-11-05T22:20:01.906Z,1025.31
2022-11-05T22:30:01.032Z,1025.33
2022-11-05T22:40:01.047Z,1025.29
2022-11-05T22:50:00.192Z,1025.26
2022-11-05T23:00:01.145Z,1025.37
2022-11-05T23:10:01.058Z,1025.36
2022-11-05T23:20:01.493Z,1025.33
2022-11-05T23:30:01.086Z,1025.32
2022-11-05T23:50:00.143Z,1025.18
